Time;durP1;ratioP1;P1;durP2;ratioP2;P2;SDS_P1;SDS_P2;PMS_P1;PMS_P2;Temp;Humidity;BMP_temperature;BMP_pressure;BME280_temperature;BME280_humidity;BME280_pressure;Samples;Min_cycle;Max_cycle;Signal;HPM_P1;HPM_P2
2023/11/05 00:00:37;;;;;;;;;;;;;;;6.03;100.00;96992.50;5009832;28;19929;-86
2023/11/05 00:03:05;;;;;;;;;;;;;;;6.04;100.00;96992.16;5011915;28;19925;-86
2023/11/05 00:05:33;;;;;;;;;;;;;;;5.93;100.00;96989.09;5012125;28;19922;-86
2023/11/05 00:08:01;;;;;;;;;;;;;;;5.89;100.00;96984.72;5026299;28;19922;-85
2023/11/05 00:10:29;;;;;;;;;;;;;;;5.88;100.00;96981.25;5009346;28;19928;-86
2023/11/05 00:13:03;;;;;;;;;;;;;;;5.87;100.00;96979.66;5024658;28;19925;-86
2023/11/05 00:15:36;;;;;;;;;;;;;;;5.91;100.00;96983.25;5025255;28;20801;-85
2023/11/05 00:18:05;;;;;;;;;;;;;;;5.85;100.00;96981.91;5009501;28;19928;-85
2023/11/05 00:20:37;;;;;;;;;;;;;;;5.92;100.00;96986.75;5032397;28;19932;-86
2023/11/05 00:23:12;;;;;;;;;;;;;;;5.89;100.00;96988.19;5014705;28;19957;-85
2023/11/05 00:25:45;;;;;;;;;;;;;;;5.88;100.00;96986.66;4992487;28;19929;-85
2023/11/05 00:28:19;;;;;;;;;;;;;;;5.94;100.00;96985.28;5011675;28;19925;-86
2023/11/05 00:30:53;;;;;;;;;;;;;;;5.99;100.00;96980.81;5025489;28;19921;-85
2023/11/05 00:33:26;;;;;;;;;;;;;;;5.93;100.00;96989.09;5009212;28;20396;-86
2023/11/05 00:35:53;;;;;;;;;;;;;;;5.99;100.00;96992.38;4994613;28;19922;-86
2023/11/05 00:38:21;;;;;;;;;;;;;;;6.04;100.00;96992.16;5015081;28;19922;-85
2023/11/05 00:40:54;;;;;;;;;;;;;;;6.01;100.00;96992.84;5016760;28;20281;-86
2023/11/05 00:43:23;;;;;;;;;;;;;;;6.05;100.00;96995.63;5031594;28;19929;-86
2023/11/05 00:45:51;;;;;;;;;;;;;;;6.04;100.00;96991.38;5017094;28;19925;-86
2023/11/05 00:48:25;;;;;;;;;;;;;;;6.02;100.00;96994.41;5018410;28;20263;-86
2023/11/05 00:50:53;;;;;;;;;;;;;;;6.04;100.00;96988.66;5015542;28;19928;-85
2023/11/05 00:53:26;;;;;;;;;;;;;;;6.02;100.00;96993.59;5035466;28;19925;-86
2023/11/05 00:55:59;;;;;;;;;;;;;;;6.00;100.00;96987.78;5014094;28;19921;-86
2023/11/05 00:58:28;;;;;;;;;;;;;;;5.98;100.00;96987.31;5021776;28;19921;-86
2023/11/05 01:00:56;;;;;;;;;;;;;;;6.01;100.00;96981.22;5013382;28;20449;-85
2023/11/05 01:03:24;;;;;;;;;;;;;;;6.00;100.00;96971.59;5032381;28;19925;-85
2023/11/05 01:05:57;;;;;;;;;;;;;;;6.01;100.00;96965.84;5013945;28;19925;-84
2023/11/05 01:08:30;;;;;;;;;;;;;;;6.01;100.00;96965.03;5017107;28;19921;-84
2023/11/05 01:10:58;;;;;;;;;;;;;;;6.00;100.00;96960.78;5016991;28;19929;-84
2023/11/05 01:13:28;;;;;;;;;;;;;;;6.00;100.00;96966.97;5017129;28;19929;-84
2023/11/05 01:15:56;;;;;;;;;;;;;;;6.05;100.00;96957.81;5031218;28;19932;-84
2023/11/05 01:18:29;;;;;;;;;;;;;;;6.03;100.00;96960.88;5016270;28;20444;-85
2023/11/05 01:21:02;;;;;;;;;;;;;;;5.99;100.00;96954.59;5017376;28;19929;-83
2023/11/05 01:23:30;;;;;;;;;;;;;;;6.02;100.00;96956.63;5013687;28;19925;-85
2023/11/05 01:25:57;;;;;;;;;;;;;;;6.05;100.00;96961.34;4996135;28;19940;-85
2023/11/05 01:28:32;;;;;;;;;;;;;;;6.05;100.00;96958.63;4994257;28;19928;-84
2023/11/05 01:31:00;;;;;;;;;;;;;;;6.05;100.00;96952.44;5014854;28;20392;-86
2023/11/05 01:33:33;;;;;;;;;;;;;;;6.01;100.00;96954.25;5008616;28;19929;-85
2023/11/05 01:36:07;;;;;;;;;;;;;;;6.01;100.00;96957.75;5010083;28;19933;-85
2023/11/05 01:38:35;;;;;;;;;;;;;;;6.00;100.00;96960.78;5016361;28;19925;-86
2023/11/05 01:41:08;;;;;;;;;;;;;;;5.96;100.00;96949.84;5011071;28;19925;-87
2023/11/05 01:43:42;;;;;;;;;;;;;;;5.97;100.00;96948.72;5016145;28;19932;-85
2023/11/05 01:46:15;;;;;;;;;;;;;;;5.99;100.00;96948.41;5031747;28;19925;-85
2023/11/05 01:48:43;;;;;;;;;;;;;;;5.99;100.00;96941.09;4997036;28;19928;-85
2023/11/05 01:51:16;;;;;;;;;;;;;;;6.03;100.00;96933.09;5003082;28;19925;-84
2023/11/05 01:53:51;;;;;;;;;;;;;;;6.01;100.00;96944.25;5029322;28;19921;-85
2023/11/05 01:56:20;;;;;;;;;;;;;;;6.00;100.00;96945.38;5012886;28;20369;-85
2023/11/05 01:58:50;;;;;;;;;;;;;;;6.03;100.00;96943.91;4991382;28;19922;-85
2023/11/05 02:01:24;;;;;;;;;;;;;;;6.01;100.00;96944.25;5003720;28;19922;-85
2023/11/05 02:03:52;;;;;;;;;;;;;;;6.01;100.00;96940.75;5012208;28;19925;-85
2023/11/05 02:06:26;;;;;;;;;;;;;;;5.99;100.00;96943.78;5011843;28;19921;-86
2023/11/05 02:08:54;;;;;;;;;;;;;;;6.00;100.00;96948.06;5008452;28;19929;-86
2023/11/05 02:11:22;;;;;;;;;;;;;;;6.01;100.00;96949.66;5014944;28;19921;-84
2023/11/05 02:13:58;;;;;;;;;;;;;;;5.99;100.00;96943.78;4986006;28;19932;-85
2023/11/05 02:16:32;;;;;;;;;;;;;;;6.03;100.00;96941.22;5025362;28;19921;-85
2023/11/05 02:19:00;;;;;;;;;;;;;;;6.06;100.00;96938.63;4991615;28;19944;-86
2023/11/05 02:21:35;;;;;;;;;;;;;;;6.06;100.00;96935.13;5013551;28;19922;-84
2023/11/05 02:24:05;;;;;;;;;;;;;;;6.12;100.00;96947.25;5012635;28;19925;-85
2023/11/05 02:26:38;;;;;;;;;;;;;;;6.09;100.00;96940.63;5010163;28;20156;-84
2023/11/05 02:29:06;;;;;;;;;;;;;;;6.12;100.00;96944.56;5012713;28;19933;-85
2023/11/05 02:31:39;;;;;;;;;;;;;;;6.09;100.00;96932.53;5011261;28;19925;-86
2023/11/05 02:34:12;;;;;;;;;;;;;;;6.11;100.00;96941.06;5026131;28;19925;-85
2023/11/05 02:36:45;;;;;;;;;;;;;;;6.09;100.00;96932.53;5011699;28;19921;-85
2023/11/05 02:39:14;;;;;;;;;;;;;;;6.08;100.00;96928.25;5026112;28;19922;-84
2023/11/05 02:41:47;;;;;;;;;;;;;;;6.10;100.00;96931.41;5027670;28;19921;-86
2023/11/05 02:44:20;;;;;;;;;;;;;;;6.17;100.00;96930.03;5011680;28;19925;-85
2023/11/05 02:46:53;;;;;;;;;;;;;;;6.11;100.00;96924.88;5009506;28;19951;-83
2023/11/05 02:49:27;;;;;;;;;;;;;;;6.13;100.00;96919.91;5011002;28;19937;-86
2023/11/05 02:52:00;;;;;;;;;;;;;;;6.15;100.00;96919.56;5012268;28;19925;-84
2023/11/05 02:54:30;;;;;;;;;;;;;;;6.12;100.00;96912.94;5012283;28;19921;-85
2023/11/05 02:56:58;;;;;;;;;;;;;;;6.13;100.00;96914.53;5003753;28;19925;-86
2023/11/05 02:59:28;;;;;;;;;;;;;;;6.18;100.00;96905.38;5012135;28;19933;-85
2023/11/05 03:02:01;;;;;;;;;;;;;;;6.17;100.00;96908.44;5003170;28;19922;-84
2023/11/05 03:04:29;;;;;;;;;;;;;;;6.17;100.00;96906.50;5008130;28;19925;-85
2023/11/05 03:07:02;;;;;;;;;;;;;;;6.20;100.00;96911.25;5010490;28;19921;-86
2023/11/05 03:09:36;;;;;;;;;;;;;;;6.19;100.00;96912.34;4989340;28;19936;-84
2023/11/05 03:12:09;;;;;;;;;;;;;;;6.18;100.00;96910.78;5012727;28;19932;-84
2023/11/05 03:14:37;;;;;;;;;;;;;;;6.19;100.00;96920.47;5029244;28;19947;-84
2023/11/05 03:17:06;;;;;;;;;;;;;;;6.18;100.00;96916.19;5009412;28;19925;-85
2023/11/05 03:19:34;;;;;;;;;;;;;;;6.20;100.00;96921.22;5010822;28;19921;-85
2023/11/05 03:22:02;;;;;;;;;;;;;;;6.25;100.00;96915.59;5008208;28;19921;-85
2023/11/05 03:24:36;;;;;;;;;;;;;;;6.25;100.00;96913.69;5025060;28;19941;-86
2023/11/05 03:27:09;;;;;;;;;;;;;;;6.26;100.00;96909.06;5024062;28;19925;-85
2023/11/05 03:29:42;;;;;;;;;;;;;;;6.26;100.00;96915.25;5011921;28;19921;-85
2023/11/05 03:32:10;;;;;;;;;;;;;;;6.29;100.00;96909.16;5024505;28;19944;-85
2023/11/05 03:34:38;;;;;;;;;;;;;;;6.29;100.00;96898.34;5010348;28;19929;-85
2023/11/05 03:37:11;;;;;;;;;;;;;;;6.30;100.00;96910.72;5010660;28;19989;-85
2023/11/05 03:39:40;;;;;;;;;;;;;;;6.30;100.00;96901.88;5009793;28;20366;-85
2023/11/05 03:42:13;;;;;;;;;;;;;;;6.36;100.00;96903.16;5013772;28;19921;-85
2023/11/05 03:44:46;;;;;;;;;;;;;;;6.35;100.00;96900.81;5012134;28;19921;-86
2023/11/05 03:47:19;;;;;;;;;;;;;;;6.36;100.00;96905.09;5009272;28;19925;-85
2023/11/05 03:49:53;;;;;;;;;;;;;;;6.35;100.00;96907.00;4999496;28;19925;-86
2023/11/05 03:52:26;;;;;;;;;;;;;;;6.39;100.00;96899.78;5025399;28;20358;-84
2023/11/05 03:55:00;;;;;;;;;;;;;;;6.39;100.00;96899.78;5010320;28;20342;-84
2023/11/05 03:57:33;;;;;;;;;;;;;;;6.40;100.00;96905.97;4989768;28;20401;-85
2023/11/05 04:00:07;;;;;;;;;;;;;;;6.45;100.00;96903.03;5021102;28;19925;-85
2023/11/05 04:02:40;;;;;;;;;;;;;;;6.42;100.00;96899.09;5002229;28;20697;-85
2023/11/05 04:05:08;;;;;;;;;;;;;;;6.42;100.00;96901.00;5026425;28;19925;-86
2023/11/05 04:07:36;;;;;;;;;;;;;;;6.42;100.00;96896.41;5025961;28;19925;-85
2023/11/05 04:10:11;;;;;;;;;;;;;;;6.44;100.00;96907.63;5012467;28;19932;-85
2023/11/05 04:12:44;;;;;;;;;;;;;;;6.41;100.00;96896.75;5010335;28;19928;-86
2023/11/05 04:15:17;;;;;;;;;;;;;;;6.37;100.00;96888.53;5022549;28;20254;-84
2023/11/05 04:17:50;;;;;;;;;;;;;;;6.35;100.00;96896.19;5008651;28;20358;-85
2023/11/05 04:20:18;;;;;;;;;;;;;;;6.37;100.00;96891.25;5005574;28;20397;-84
2023/11/05 04:22:51;;;;;;;;;;;;;;;6.39;100.00;96885.50;5025526;28;19925;-85
2023/11/05 04:25:20;;;;;;;;;;;;;;;6.41;100.00;96891.34;5010055;28;20300;-86
2023/11/05 04:27:49;;;;;;;;;;;;;;;6.40;100.00;96881.66;5010601;28;19932;-85
2023/11/05 04:30:17;;;;;;;;;;;;;;;6.44;100.00;96883.31;4985098;28;19925;-86
2023/11/05 04:32:44;;;;;;;;;;;;;;;6.40;100.00;96878.97;5020425;28;19921;-86
2023/11/05 04:35:13;;;;;;;;;;;;;;;6.42;100.00;96880.19;5009046;28;19936;-85
2023/11/05 04:37:41;;;;;;;;;;;;;;;6.42;100.00;96877.50;5002748;28;20138;-85
2023/11/05 04:40:14;;;;;;;;;;;;;;;6.34;100.00;96874.94;5017368;28;19922;-85
2023/11/05 04:42:49;;;;;;;;;;;;;;;6.34;100.00;96872.22;5006130;28;19922;-85
2023/11/05 04:45:22;;;;;;;;;;;;;;;6.32;100.00;96877.97;5010858;28;19925;-86
2023/11/05 04:47:55;;;;;;;;;;;;;;;6.25;100.00;96878.56;5007403;28;19925;-86
2023/11/05 04:50:28;;;;;;;;;;;;;;;6.25;100.00;96875.09;5010021;28;19932;-85
2023/11/05 04:53:01;;;;;;;;;;;;;;;6.15;100.00;96867.50;5001207;28;19921;-86
2023/11/05 04:55:29;;;;;;;;;;;;;;;6.17;100.00;96871.41;5008844;28;19928;-84
2023/11/05 04:58:04;;;;;;;;;;;;;;;6.18;100.00;96874.91;5011612;28;19925;-85
2023/11/05 05:00:37;;;;;;;;;;;;;;;6.19;100.00;96873.78;5006552;28;20408;-85
2023/11/05 05:03:04;;;;;;;;;;;;;;;6.22;100.00;96868.47;5004231;28;19922;-85
2023/11/05 05:05:32;;;;;;;;;;;;;;;6.23;100.00;96874.66;5024077;28;20381;-85
2023/11/05 05:08:00;;;;;;;;;;;;;;;6.27;100.00;96873.63;5010253;28;20506;-85
2023/11/05 05:10:29;;;;;;;;;;;;;;;6.26;100.00;96872.06;5008524;28;20548;-85
2023/11/05 05:13:03;;;;;;;;;;;;;;;6.28;100.00;96877.91;5009748;28;20760;-86
2023/11/05 05:15:36;;;;;;;;;;;;;;;6.26;100.00;96873.97;5026251;28;19953;-84
2023/11/05 05:18:09;;;;;;;;;;;;;;;6.29;100.00;96876.75;5001594;28;19929;-84
2023/11/05 05:20:37;;;;;;;;;;;;;;;6.28;100.00;96882.50;5007953;28;20816;-83
2023/11/05 05:23:05;;;;;;;;;;;;;;;6.24;100.00;96878.91;5009452;28;20587;-85
2023/11/05 05:25:33;;;;;;;;;;;;;;;6.24;100.00;96873.53;5013391;28;19932;-83
2023/11/05 05:28:01;;;;;;;;;;;;;;;6.25;100.00;96878.56;4991254;28;19922;-84
2023/11/05 05:30:30;;;;;;;;;;;;;;;6.30;100.00;96872.16;5013935;28;20393;-84
2023/11/05 05:32:58;;;;;;;;;;;;;;;6.27;100.00;96880.94;4990977;28;19951;-83
2023/11/05 05:35:31;;;;;;;;;;;;;;;6.33;100.00;96876.88;5026399;28;20000;-84
2023/11/05 05:38:04;;;;;;;;;;;;;;;6.30;100.00;96877.56;5008755;28;19921;-83
2023/11/05 05:40:32;;;;;;;;;;;;;;;6.32;100.00;96874.50;5009391;28;19932;-83
2023/11/05 05:43:05;;;;;;;;;;;;;;;6.36;100.00;96875.38;5009940;28;19921;-85
2023/11/05 05:45:39;;;;;;;;;;;;;;;6.35;100.00;96876.50;5027898;28;19933;-85
2023/11/05 05:48:12;;;;;;;;;;;;;;;6.34;100.00;96875.75;5026619;28;20312;-84
2023/11/05 05:50:41;;;;;;;;;;;;;;;6.35;100.00;96879.22;5012793;28;19921;-85
2023/11/05 05:53:10;;;;;;;;;;;;;;;6.34;100.00;96877.63;5029010;28;19956;-84
2023/11/05 05:55:43;;;;;;;;;;;;;;;6.37;100.00;96874.28;4986846;28;19929;-84
2023/11/05 05:58:19;;;;;;;;;;;;;;;6.35;100.00;96876.50;5013090;28;19940;-85
2023/11/05 06:00:53;;;;;;;;;;;;;;;6.34;100.00;96874.94;5013103;28;20271;-84
2023/11/05 06:03:21;;;;;;;;;;;;;;;6.34;100.00;96881.13;5004400;28;19929;-84
2023/11/05 06:05:49;;;;;;;;;;;;;;;6.38;100.00;96878.50;4989862;28;19926;-85
2023/11/05 06:08:22;;;;;;;;;;;;;;;6.36;100.00;96865.38;5013418;28;19932;-84
2023/11/05 06:10:55;;;;;;;;;;;;;;;6.37;100.00;96863.47;5010368;28;19932;-85
2023/11/05 06:13:28;;;;;;;;;;;;;;;6.39;100.00;96869.28;5010075;28;19929;-85
2023/11/05 06:16:02;;;;;;;;;;;;;;;6.37;100.00;96872.34;5012408;28;19925;-85
2023/11/05 06:18:30;;;;;;;;;;;;;;;6.34;100.00;96867.63;5013414;28;19928;-85
2023/11/05 06:21:06;;;;;;;;;;;;;;;6.37;100.00;96866.16;5013115;28;19929;-85
2023/11/05 06:23:34;;;;;;;;;;;;;;;6.38;100.00;96862.31;5015205;28;19925;-85
2023/11/05 06:26:07;;;;;;;;;;;;;;;6.42;100.00;96857.78;5027979;28;19925;-85
2023/11/05 06:28:40;;;;;;;;;;;;;;;6.44;100.00;96861.72;5011355;28;19929;-84
2023/11/05 06:31:16;;;;;;;;;;;;;;;6.42;100.00;96855.91;5015148;28;19921;-85
2023/11/05 06:33:44;;;;;;;;;;;;;;;6.45;100.00;96852.50;5012918;28;19926;-84
2023/11/05 06:36:18;;;;;;;;;;;;;;;6.43;100.00;96857.44;5005968;28;19922;-85
2023/11/05 06:38:51;;;;;;;;;;;;;;;6.44;100.00;96861.72;5028121;28;19921;-85
2023/11/05 06:41:19;;;;;;;;;;;;;;;6.44;100.00;96866.34;5024977;28;20316;-85
2023/11/05 06:43:52;;;;;;;;;;;;;;;6.44;100.00;96860.94;4998723;28;19933;-83
2023/11/05 06:46:21;;;;;;;;;;;;;;;6.41;100.00;96867.03;5026977;28;19925;-85
2023/11/05 06:48:49;;;;;;;;;;;;;;;6.41;100.00;96870.53;5007322;28;19925;-84
2023/11/05 06:51:17;;;;;;;;;;;;;;;6.37;100.00;96869.63;5028956;28;19925;-85
2023/11/05 06:53:46;;;;;;;;;;;;;;;6.38;100.00;96865.81;5013758;28;19925;-84
2023/11/05 06:56:18;;;;;;;;;;;;;;;6.34;100.00;96864.94;5015991;28;19928;-84
2023/11/05 06:58:51;;;;;;;;;;;;;;;6.32;100.00;96864.47;5011722;28;19976;-85
2023/11/05 07:01:26;;;;;;;;;;;;;;;6.33;100.00;96876.09;5012757;28;19929;-85
2023/11/05 07:03:59;;;;;;;;;;;;;;;6.26;100.00;96868.56;5027034;28;19925;-84
2023/11/05 07:06:28;;;;;;;;;;;;;;;6.26;100.00;96872.06;5013326;28;19940;-84
2023/11/05 07:09:01;;;;;;;;;;;;;;;6.20;100.00;96876.16;4989362;28;19929;-85
2023/11/05 07:11:34;;;;;;;;;;;;;;;6.16;100.00;96864.47;5010701;28;19925;-84
2023/11/05 07:14:07;;;;;;;;;;;;;;;6.11;100.00;96868.16;5013227;28;19929;-84
2023/11/05 07:16:41;;;;;;;;;;;;;;;6.12;100.00;96866.28;5006423;28;19921;-85
2023/11/05 07:19:14;;;;;;;;;;;;;;;6.07;100.00;96864.59;4991998;28;19933;-85
2023/11/05 07:21:47;;;;;;;;;;;;;;;6.11;100.00;96873.56;5009596;28;20397;-85
2023/11/05 07:24:15;;;;;;;;;;;;;;;6.15;100.00;96864.81;5026731;28;19925;-85
2023/11/05 07:26:48;;;;;;;;;;;;;;;6.18;100.00;96864.88;5009854;28;19928;-84
2023/11/05 07:29:21;;;;;;;;;;;;;;;6.26;100.00;96860.47;5005728;28;19925;-85
2023/11/05 07:31:56;;;;;;;;;;;;;;;6.32;100.00;96864.47;5011345;28;19933;-84
2023/11/05 07:34:29;;;;;;;;;;;;;;;6.35;100.00;96863.78;5011043;28;19922;-85
2023/11/05 07:37:02;;;;;;;;;;;;;;;6.40;100.00;96860.84;5009072;28;19922;-84
2023/11/05 07:39:35;;;;;;;;;;;;;;;6.43;100.00;96857.44;5026821;28;19925;-85
2023/11/05 07:42:10;;;;;;;;;;;;;;;6.44;100.00;96860.94;5012047;28;19925;-85
2023/11/05 07:44:43;;;;;;;;;;;;;;;6.48;100.00;96853.72;4992462;28;20412;-84
2023/11/05 07:47:12;;;;;;;;;;;;;;;6.49;100.00;96855.28;5010271;28;20305;-83
2023/11/05 07:49:40;;;;;;;;;;;;;;;6.54;100.00;96854.25;5011985;28;20285;-85
2023/11/05 07:52:14;;;;;;;;;;;;;;;6.62;100.00;96859.47;5003651;28;19921;-85
2023/11/05 07:54:47;;;;;;;;;;;;;;;6.69;100.00;96858.09;5002290;28;19929;-85
2023/11/05 07:57:20;;;;;;;;;;;;;;;6.75;100.00;96860.19;5026653;28;19929;-84
2023/11/05 07:59:53;;;;;;;;;;;;;;;6.78;100.00;96859.50;5026621;28;19925;-84
2023/11/05 08:02:23;;;;;;;;;;;;;;;6.84;100.00;96860.00;5030646;28;19925;-84
2023/11/05 08:04:56;;;;;;;;;;;;;;;6.90;100.00;96863.22;5012062;28;19929;-83
2023/11/05 08:07:29;;;;;;;;;;;;;;;6.96;100.00;96859.13;5026110;28;19944;-84
2023/11/05 08:09:57;;;;;;;;;;;;;;;7.02;100.00;96862.38;4988613;28;20455;-87
2023/11/05 08:12:25;;;;;;;;;;;;;;;7.05;100.00;96858.97;5011113;28;19921;-84
2023/11/05 08:14:53;;;;;;;;;;;;;;;7.10;100.00;96856.00;5009127;28;19921;-84
2023/11/05 08:17:23;;;;;;;;;;;;;;;7.13;100.00;96864.19;5009284;28;19921;-84
2023/11/05 08:19:51;;;;;;;;;;;;;;;7.18;100.00;96863.13;4985848;28;19921;-85
2023/11/05 08:22:24;;;;;;;;;;;;;;;7.23;100.00;96867.50;4992459;28;19921;-85
2023/11/05 08:24:57;;;;;;;;;;;;;;;7.24;100.00;96867.13;5006332;28;19929;-84
2023/11/05 08:27:30;;;;;;;;;;;;;;;7.27;100.00;96871.84;5011445;28;19925;-86
2023/11/05 08:30:03;;;;;;;;;;;;;;;7.29;100.00;96860.66;5009472;28;20571;-86
2023/11/05 08:32:33;;;;;;;;;;;;;;;7.33;100.00;96864.22;5024345;28;19928;-86
2023/11/05 08:35:06;;;;;;;;;;;;;;;7.38;100.00;96866.66;5007455;28;19925;-85
2023/11/05 08:37:40;;;;;;;;;;;;;;;7.39;100.00;96870.16;5008439;28;19921;-84
2023/11/05 08:40:15;;;;;;;;;;;;;;;7.41;100.00;96868.66;5006304;28;20289;-85
2023/11/05 08:42:48;;;;;;;;;;;;;;;7.46;100.00;96862.22;5024816;28;19925;-84
2023/11/05 08:45:16;;;;;;;;;;;;;;;7.51;100.00;96861.91;5024404;28;20289;-84
2023/11/05 08:47:51;;;;;;;;;;;;;;;7.57;100.00;96863.22;5025919;28;19926;-84
2023/11/05 08:50:19;;;;;;;;;;;;;;;7.65;100.00;96870.34;4990618;28;20277;-85
2023/11/05 08:52:53;;;;;;;;;;;;;;;7.66;100.00;96865.72;4990035;28;19929;-85
2023/11/05 08:55:28;;;;;;;;;;;;;;;7.78;100.00;96868.28;5010170;28;19925;-86
2023/11/05 08:57:57;;;;;;;;;;;;;;;7.77;100.00;96872.13;5025784;28;19926;-86
2023/11/05 09:00:32;;;;;;;;;;;;;;;7.86;100.00;96869.25;5009045;28;19925;-83
2023/11/05 09:03:01;;;;;;;;;;;;;;;7.91;100.00;96868.97;5026252;28;19930;-84
2023/11/05 09:05:29;;;;;;;;;;;;;;;7.95;100.00;96874.44;5025623;28;19968;-86
2023/11/05 09:07:57;;;;;;;;;;;;;;;8.06;100.00;96874.66;5029488;28;19937;-85
2023/11/05 09:10:26;;;;;;;;;;;;;;;8.12;100.00;96875.94;5028428;28;20000;-84
2023/11/05 09:12:59;;;;;;;;;;;;;;;8.25;100.00;96879.28;5009847;28;20282;-87
2023/11/05 09:15:27;;;;;;;;;;;;;;;8.30;100.00;96882.50;5029754;28;19925;-84
2023/11/05 09:18:01;;;;;;;;;;;;;;;8.31;100.00;96877.84;5012653;28;19929;-84
2023/11/05 09:20:34;;;;;;;;;;;;;;;8.28;100.00;96882.06;5029489;28;19925;-84
2023/11/05 09:23:08;;;;;;;;;;;;;;;8.26;100.00;96884.34;5011231;28;19920;-83
2023/11/05 09:25:36;;;;;;;;;;;;;;;8.27;100.00;96891.34;5009451;28;20027;-84
2023/11/05 09:28:05;;;;;;;;;;;;;;;8.23;100.00;96890.47;5007385;28;20428;-84
2023/11/05 09:30:33;;;;;;;;;;;;;;;8.19;100.00;96897.75;5011368;28;19925;-85
2023/11/05 09:33:07;;;;;;;;;;;;;;;8.16;100.00;96891.13;5010443;28;19929;-84
2023/11/05 09:35:40;;;;;;;;;;;;;;;8.21;100.00;96891.97;4994511;28;20380;-83
2023/11/05 09:38:13;;;;;;;;;;;;;;;8.24;100.00;96889.31;5006098;28;19933;-84
2023/11/05 09:40:41;;;;;;;;;;;;;;;8.25;100.00;96890.13;4991566;28;19928;-84
2023/11/05 09:43:10;;;;;;;;;;;;;;;8.27;100.00;96894.03;5013084;28;20647;-84
2023/11/05 09:45:38;;;;;;;;;;;;;;;8.30;100.00;96898.75;5011684;28;20362;-84
2023/11/05 09:48:12;;;;;;;;;;;;;;;8.32;100.00;96898.38;5025443;28;19925;-84
2023/11/05 09:50:46;;;;;;;;;;;;;;;8.28;100.00;96894.81;5010682;28;19928;-82
2023/11/05 09:53:15;;;;;;;;;;;;;;;8.28;100.00;96897.53;5014302;28;19925;-83
2023/11/05 09:55:48;;;;;;;;;;;;;;;8.31;100.00;96897.59;5013160;28;19922;-85
2023/11/05 09:58:16;;;;;;;;;;;;;;;8.26;100.00;96891.66;5007422;28;19921;-85
2023/11/05 10:00:44;;;;;;;;;;;;;;;8.30;100.00;96887.09;5011193;28;19921;-84
2023/11/05 10:03:18;;;;;;;;;;;;;;;8.29;100.00;96891.75;5012887;28;19922;-85
2023/11/05 10:05:47;;;;;;;;;;;;;;;8.32;100.00;96891.03;5026197;28;20373;-85
2023/11/05 10:08:22;;;;;;;;;;;;;;;8.34;100.00;96899.59;5012588;28;19933;-85
2023/11/05 10:10:58;;;;;;;;;;;;;;;8.34;100.00;96890.66;5014961;28;19944;-84
2023/11/05 10:13:31;;;;;;;;;;;;;;;8.40;100.00;96889.25;5009367;28;19929;-85
2023/11/05 10:16:00;;;;;;;;;;;;;;;8.44;100.00;96886.63;5010535;28;20857;-84
2023/11/05 10:18:36;;;;;;;;;;;;;;;8.47;100.00;96886.69;5008485;28;19928;-87
2023/11/05 10:21:05;;;;;;;;;;;;;;;8.45;100.00;96891.72;5013020;28;19953;-85
2023/11/05 10:23:49;;;;;;;;;;;;;;;8.48;100.00;96890.97;5009337;28;19925;-86
2023/11/05 10:26:29;;;;;;;;;;;;;;;8.46;100.00;96895.19;5009594;28;19925;-85
2023/11/05 10:28:57;;;;;;;;;;;;;;;8.46;100.00;96895.97;5010635;28;19925;-84
2023/11/05 10:31:26;;;;;;;;;;;;;;;8.40;100.00;96907.44;5028258;28;19925;-86
2023/11/05 10:33:56;;;;;;;;;;;;;;;8.43;100.00;96906.72;5009440;28;19922;-85
2023/11/05 10:36:31;;;;;;;;;;;;;;;8.42;100.00;96905.16;4985641;28;20385;-83
2023/11/05 10:39:05;;;;;;;;;;;;;;;8.45;100.00;96904.44;5009771;28;19925;-86
2023/11/05 10:41:38;;;;;;;;;;;;;;;8.47;100.00;96902.94;5008076;28;20389;-86
2023/11/05 10:44:12;;;;;;;;;;;;;;;8.43;100.00;96906.72;5009659;28;19952;-85
2023/11/05 10:46:40;;;;;;;;;;;;;;;8.44;100.00;96916.44;5004373;28;19925;-87
2023/11/05 10:49:14;;;;;;;;;;;;;;;8.43;100.00;96912.91;5008269;28;19933;-87
2023/11/05 10:51:42;;;;;;;;;;;;;;;8.49;100.00;96916.94;5009553;28;19933;-84
2023/11/05 10:54:16;;;;;;;;;;;;;;;8.57;100.00;96909.72;5004601;28;19964;-85
2023/11/05 10:56:46;;;;;;;;;;;;;;;8.62;100.00;96914.06;5009079;28;19936;-85
2023/11/05 10:59:33;;;;;;;;;;;;;;;8.56;100.00;96915.50;5022813;28;19926;-85
2023/11/05 11:02:07;;;;;;;;;;;;;;;8.56;100.00;96931.75;5005522;28;19925;-86
2023/11/05 11:04:41;;;;;;;;;;;;;;;8.54;100.00;96929.41;5023077;28;19925;-84
2023/11/05 11:07:14;;;;;;;;;;;;;;;8.55;100.00;96922.84;5007428;28;19922;-85
2023/11/05 11:09:47;;;;;;;;;;;;;;;8.56;100.00;96924.44;5009651;28;19948;-84
2023/11/05 11:12:29;;;;;;;;;;;;;;;8.56;100.00;96923.63;5007840;28;19925;-85
2023/11/05 11:14:57;;;;;;;;;;;;;;;8.66;100.00;96936.59;5006303;28;19940;-85
2023/11/05 11:17:32;;;;;;;;;;;;;;;8.72;100.00;96928.97;5010325;28;19925;-86
2023/11/05 11:20:09;;;;;;;;;;;;;;;8.79;100.00;96924.44;4998179;28;19922;-86
2023/11/05 11:22:42;;;;;;;;;;;;;;;8.82;100.00;96934.59;5005286;28;19936;-86
2023/11/05 11:25:11;;;;;;;;;;;;;;;8.84;100.00;96939.66;5010018;28;19933;-86
2023/11/05 11:27:48;;;;;;;;;;;;;;;8.89;100.00;96930.41;5009503;28;20444;-85
2023/11/05 11:30:22;;;;;;;;;;;;;;;8.97;100.00;96932.13;5000835;28;20316;-85
2023/11/05 11:32:50;;;;;;;;;;;;;;;9.05;100.00;96933.03;5027879;28;20286;-85
2023/11/05 11:35:24;;;;;;;;;;;;;;;9.12;100.00;96933.16;5011110;28;20380;-85
2023/11/05 11:37:57;;;;;;;;;;;;;;;9.17;100.00;96938.28;5011030;28;20584;-85
2023/11/05 11:40:30;;;;;;;;;;;;;;;9.19;100.00;96933.25;5008417;28;19925;-85
2023/11/05 11:42:58;;;;;;;;;;;;;;;9.13;100.00;96940.91;5022722;28;19932;-88
2023/11/05 11:45:31;;;;;;;;;;;;;;;9.17;100.00;96932.84;5021333;28;19925;-84
2023/11/05 11:48:04;;;;;;;;;;;;;;;9.15;100.00;96941.31;5005430;28;19925;-85
2023/11/05 11:50:49;;;;;;;;;;;;;;;9.17;100.00;96949.13;4985812;28;19921;-85
2023/11/05 11:53:25;;;;;;;;;;;;;;;9.18;100.00;96945.25;4988132;28;19944;-85
2023/11/05 11:55:59;;;;;;;;;;;;;;;9.17;100.00;96943.69;5003642;28;19925;-85
2023/11/05 11:58:29;;;;;;;;;;;;;;;9.16;100.00;96945.59;5005951;28;19933;-86
2023/11/05 12:00:57;;;;;;;;;;;;;;;9.09;100.00;96945.50;5019252;28;19929;-85
2023/11/05 12:03:27;;;;;;;;;;;;;;;9.10;100.00;96949.78;5007891;28;20301;-85
2023/11/05 12:05:57;;;;;;;;;;;;;;;9.13;100.00;96954.47;5023615;28;19932;-84
2023/11/05 12:08:38;;;;;;;;;;;;;;;9.21;100.00;96958.09;4982978;28;19926;-85
2023/11/05 12:11:12;;;;;;;;;;;;;;;9.28;100.00;96960.13;5007690;28;19932;-86
2023/11/05 12:13:46;;;;;;;;;;;;;;;9.31;100.00;96965.63;5007285;28;19925;-85
2023/11/05 12:16:15;;;;;;;;;;;;;;;9.34;100.00;96969.53;4997068;28;19930;-85
2023/11/05 12:18:44;;;;;;;;;;;;;;;9.36;100.00;96975.38;5020535;28;19929;-85
2023/11/05 12:21:14;;;;;;;;;;;;;;;9.36;100.00;96972.66;5001994;28;22070;-86
2023/11/05 12:23:42;;;;;;;;;;;;;;;9.39;100.00;96974.69;5021009;28;19925;-87
2023/11/05 12:26:16;;;;;;;;;;;;;;;9.41;100.00;96979.75;5005160;28;19932;-84
2023/11/05 12:28:45;;;;;;;;;;;;;;;9.43;100.00;96977.44;5005963;28;19925;-87
2023/11/05 12:31:15;;;;;;;;;;;;;;;9.43;100.00;96980.94;5005365;28;20404;-87
2023/11/05 12:33:48;;;;;;;;;;;;;;;9.44;100.00;96979.00;5005845;28;19926;-87
2023/11/05 12:36:17;;;;;;;;;;;;;;;9.44;100.00;96987.91;5022001;28;19925;-84
2023/11/05 12:38:47;;;;;;;;;;;;;;;9.45;100.00;96988.72;5025466;28;19926;-84
2023/11/05 12:41:15;;;;;;;;;;;;;;;9.48;100.00;96988.75;5000017;28;19929;-85
2023/11/05 12:43:43;;;;;;;;;;;;;;;9.47;100.00;96995.34;5007217;28;19930;-84
2023/11/05 12:46:16;;;;;;;;;;;;;;;9.45;100.00;96989.50;5019377;28;19922;-84
2023/11/05 12:48:44;;;;;;;;;;;;;;;9.54;100.00;96991.94;4990063;28;19921;-84
2023/11/05 12:51:12;;;;;;;;;;;;;;;9.57;100.00;96995.88;5004471;28;19929;-84
2023/11/05 12:53:46;;;;;;;;;;;;;;;9.57;100.00;97002.09;5004205;28;19936;-84
2023/11/05 12:56:16;;;;;;;;;;;;;;;9.58;100.00;97009.06;4981621;28;19936;-85
2023/11/05 12:58:49;;;;;;;;;;;;;;;9.61;100.00;97002.94;4994822;28;19932;-83
2023/11/05 13:01:23;;;;;;;;;;;;;;;9.59;100.00;97007.16;4987294;28;19932;-84
2023/11/05 13:03:56;;;;;;;;;;;;;;;9.56;100.00;97013.31;4977507;28;19929;-83
2023/11/05 13:06:29;;;;;;;;;;;;;;;9.52;100.00;97014.03;4997978;28;20000;-84
2023/11/05 13:08:58;;;;;;;;;;;;;;;9.54;100.00;97019.09;4999808;28;19936;-84